West Indianapolis, Indiana
Current Conditions -  °F | °C
As of 4:54 AM on Monday 20 Oct 2014 (Local Time) from KIND Reporting Station
Overcast Overcast  
Wind Chill: 44°   Ceiling: 10000
Heat Index: 48°   Visibility: 10mi
Dew Point: 42°   Wind: 9mph
Humidity: 80%   Direction: 200°SSW
Pressure: 29.98"   Gusts: NA
Location:  39.6896°N, 86.2406°W
Report Text: KIND 200854Z 20008KT 10SM BKN100 BKN120 OVC160 09/06 A2998 RMK AO2 SLP151 T00890056 57016
Loading
Personal Weather Stations






























Interactive Weather Map
Tropical Storm Tracking
New forecast layout! Learn more

10-Day Weather Forecast

Advertisements
Track Severe Weather on mobile